Time;durP1;ratioP1;P1;durP2;ratioP2;P2;SDS_P1;SDS_P2;PMS_P1;PMS_P2;Temp;Humidity;BMP_temperature;BMP_pressure;BME280_temperature;BME280_humidity;BME280_pressure;Samples;Min_cycle;Max_cycle;Signal;HPM_P1;HPM_P2
2021/11/07 00:01:55;;;;;;;36.75;21.60;;;3.20;99.90;;;;;;1867544;75;21235;-77
2021/11/07 00:04:35;;;;;;;43.75;23.35;;;3.20;99.90;;;;;;1857963;75;21407;-75
2021/11/07 00:07:12;;;;;;;47.20;23.07;;;3.20;99.90;;;;;;1839735;75;21102;-75
2021/11/07 00:09:35;;;;;;;45.00;23.73;;;3.20;99.90;;;;;;1837470;77;21098;-76
2021/11/07 00:12:00;;;;;;;57.48;24.07;;;3.30;99.90;;;;;;1826212;77;21106;-74
2021/11/07 00:14:22;;;;;;;46.70;23.10;;;3.20;99.90;;;;;;1863894;75;21058;-75
2021/11/07 00:16:48;;;;;;;46.05;22.32;;;3.30;99.90;;;;;;1869838;75;21545;-74
2021/11/07 00:19:23;;;;;;;44.33;22.27;;;3.20;99.90;;;;;;1885484;76;21086;-75
2021/11/07 00:21:46;;;;;;;44.38;23.10;;;3.20;99.90;;;;;;1817657;76;21146;-75
2021/11/07 00:24:21;;;;;;;39.08;22.15;;;3.20;99.90;;;;;;1820118;77;21102;-73
2021/11/07 00:26:51;;;;;;;51.60;22.45;;;3.20;99.90;;;;;;1818156;76;21067;-76
2021/11/07 00:29:16;;;;;;;42.65;22.40;;;3.20;99.90;;;;;;1819241;78;21122;-76
2021/11/07 00:31:48;;;;;;;43.23;22.55;;;3.30;99.90;;;;;;1866858;75;21129;-76
2021/11/07 00:36:55;;;;;;;37.25;21.33;;;3.30;99.90;;;;;;1863747;75;21082;-75
2021/11/07 00:47:13;;;;;;;41.95;22.55;;;3.20;99.90;;;;;;1826401;75;21178;-76
2021/11/07 00:49:40;;;;;;;41.65;22.58;;;3.30;99.90;;;;;;1825458;76;21262;-75
2021/11/07 00:55:21;;;;;;;44.67;22.07;;;3.20;99.90;;;;;;1824678;76;21125;-76
2021/11/07 00:57:03;;;;;;;43.30;22.60;;;3.20;99.90;;;;;;1846121;75;21558;-76
2021/11/07 01:01:59;;;;;;;40.40;21.65;;;3.20;99.90;;;;;;1818515;79;21068;-74
2021/11/07 01:04:26;;;;;;;47.30;21.70;;;3.30;99.90;;;;;;1831431;77;21645;-75
2021/11/07 01:06:52;;;;;;;38.15;19.92;;;3.40;99.90;;;;;;1819942;78;21164;-75
2021/11/07 01:09:18;;;;;;;39.35;21.25;;;3.40;99.90;;;;;;1829945;77;21095;-76
2021/11/07 01:11:44;;;;;;;43.25;21.27;;;3.40;99.90;;;;;;1870668;76;21477;-77
2021/11/07 01:14:10;;;;;;;45.08;22.15;;;3.40;99.90;;;;;;1868758;76;21493;-76
2021/11/07 01:16:37;;;;;;;33.65;19.67;;;3.30;99.90;;;;;;1878373;75;21055;-76
2021/11/07 01:19:03;;;;;;;44.48;21.52;;;3.40;99.90;;;;;;1874332;75;21161;-77
2021/11/07 01:21:33;;;;;;;38.95;20.05;;;3.50;99.90;;;;;;1823795;76;21165;-76
2021/11/07 01:24:00;;;;;;;32.28;18.82;;;3.60;99.90;;;;;;1818765;77;21591;-77
2021/11/07 01:26:35;;;;;;;36.25;19.30;;;3.60;99.90;;;;;;1825401;76;21159;-77
2021/11/07 01:29:14;;;;;;;33.20;19.62;;;3.60;99.90;;;;;;1819226;77;21126;-75
2021/11/07 01:31:38;;;;;;;30.60;19.35;;;3.60;99.90;;;;;;1832544;76;21060;-74
2021/11/07 01:34:06;;;;;;;37.05;17.27;;;3.60;99.90;;;;;;1826028;77;21607;-77
2021/11/07 01:41:59;;;;;;;29.42;18.80;;;3.40;99.90;;;;;;1789232;76;21574;-76
2021/11/07 01:44:14;;;;;;;30.45;18.67;;;3.40;99.90;;;;;;1874879;75;21199;-75
2021/11/07 01:46:47;;;;;;;32.83;19.45;;;3.40;99.90;;;;;;1831443;76;21113;-75
2021/11/07 01:49:12;;;;;;;39.45;19.10;;;3.40;99.90;;;;;;1817925;77;21162;-76
2021/11/07 01:51:47;;;;;;;;;;;3.50;99.90;;;;;;1828134;76;21196;-76
2021/11/07 01:54:18;;;;;;;32.23;19.82;;;3.40;99.90;;;;;;1878880;75;20145;-74
2021/11/07 01:56:36;;;;;;;;;;;3.40;99.90;;;;;;1966860;72;21596;-75
2021/11/07 01:59:02;;;;;;;32.70;17.98;;;3.40;99.90;;;;;;1990807;72;20151;-74
2021/11/07 02:01:28;;;;;;;30.35;19.15;;;3.40;99.90;;;;;;1982278;72;21032;-75
2021/11/07 02:03:55;;;;;;;27.60;17.60;;;3.40;99.90;;;;;;1982031;72;21205;-75
2021/11/07 02:06:21;;;;;;;31.45;18.42;;;3.30;99.90;;;;;;1974847;72;21132;-75
2021/11/07 02:08:47;;;;;;;30.57;18.23;;;3.30;99.90;;;;;;1972500;72;21112;-75
2021/11/07 02:11:13;;;;;;;26.90;17.02;;;3.20;99.90;;;;;;1984699;72;21206;-74
2021/11/07 02:13:40;;;;;;;29.75;18.52;;;3.20;99.90;;;;;;1978122;72;21053;-75
2021/11/07 02:16:06;;;;;;;28.38;17.92;;;3.20;99.90;;;;;;1974857;72;21229;-75
2021/11/07 02:18:32;;;;;;;32.83;19.15;;;3.10;99.90;;;;;;1964807;72;21054;-75
2021/11/07 02:20:58;;;;;;;31.42;18.42;;;3.20;99.90;;;;;;1989918;72;21050;-75
2021/11/07 02:23:25;;;;;;;27.67;17.75;;;3.10;99.90;;;;;;1989533;72;21423;-74
2021/11/07 02:25:53;;;;;;;31.73;17.95;;;3.00;99.90;;;;;;1972933;72;21032;-76
2021/11/07 02:28:19;;;;;;;30.08;16.37;;;3.00;99.90;;;;;;1984705;72;21090;-75
2021/11/07 02:30:45;;;;;;;27.00;17.32;;;2.90;99.90;;;;;;1976114;72;21054;-75
2021/11/07 02:33:12;;;;;;;26.27;16.37;;;2.80;99.90;;;;;;1959982;72;21182;-76
2021/11/07 02:35:38;;;;;;;22.60;15.95;;;2.80;99.90;;;;;;1964409;72;21118;-75
2021/11/07 02:38:04;;;;;;;27.40;15.50;;;2.80;99.90;;;;;;1983115;72;21051;-75
2021/11/07 02:40:30;;;;;;;29.30;16.62;;;2.80;99.90;;;;;;1986748;72;21132;-75
2021/11/07 02:42:56;;;;;;;23.73;16.48;;;2.80;99.90;;;;;;1979835;72;21045;-74
2021/11/07 02:45:22;;;;;;;26.10;16.23;;;2.80;99.90;;;;;;1978016;72;21136;-75
2021/11/07 02:47:48;;;;;;;21.27;15.32;;;2.80;99.90;;;;;;1973937;72;21128;-75
2021/11/07 02:50:14;;;;;;;23.10;15.48;;;2.80;99.90;;;;;;1978611;72;21123;-74
2021/11/07 02:52:41;;;;;;;22.93;15.30;;;2.70;99.90;;;;;;1976218;72;21124;-74
2021/11/07 02:55:07;;;;;;;22.70;15.15;;;2.70;99.90;;;;;;1987009;72;21074;-75
2021/11/07 02:57:33;;;;;;;23.83;15.90;;;2.70;99.90;;;;;;1961804;72;21131;-74
2021/11/07 03:00:03;;;;;;;29.77;16.25;;;2.60;99.90;;;;;;1987619;72;21027;-76
2021/11/07 03:02:28;;;;;;;21.93;15.93;;;2.60;99.90;;;;;;1975683;72;21472;-75
2021/11/07 03:04:54;;;;;;;24.63;16.40;;;2.50;99.90;;;;;;1986008;72;21178;-75
2021/11/07 03:07:20;;;;;;;20.17;15.30;;;2.50;99.90;;;;;;1981135;72;21067;-75
2021/11/07 03:09:46;;;;;;;21.65;15.45;;;2.50;99.90;;;;;;1970572;72;21595;-74
2021/11/07 03:12:12;;;;;;;21.33;14.93;;;2.50;99.90;;;;;;1976288;72;21536;-76
2021/11/07 03:14:38;;;;;;;21.02;14.68;;;2.50;99.90;;;;;;1984134;72;21132;-75
2021/11/07 03:17:05;;;;;;;19.40;13.70;;;2.40;99.90;;;;;;1980279;72;21139;-74
2021/11/07 03:19:31;;;;;;;18.95;13.48;;;2.40;99.90;;;;;;1969415;72;21127;-75
2021/11/07 03:21:57;;;;;;;25.88;14.68;;;2.30;99.90;;;;;;1959887;72;21111;-74
2021/11/07 03:24:23;;;;;;;23.20;13.75;;;2.30;99.90;;;;;;1972889;72;21112;-74
2021/11/07 03:26:49;;;;;;;22.80;13.58;;;2.20;99.90;;;;;;1984324;72;21584;-75
2021/11/07 03:29:16;;;;;;;16.87;12.33;;;2.20;99.90;;;;;;1980406;72;21058;-75
2021/11/07 03:34:30;;;;;;;21.40;13.45;;;2.00;99.90;;;;;;1989664;72;21172;-76
2021/11/07 03:36:51;;;;;;;23.55;14.10;;;2.10;99.90;;;;;;1957029;72;21097;-75
2021/11/07 03:39:14;;;;;;;19.40;13.78;;;2.00;99.90;;;;;;1980984;72;21131;-75
2021/11/07 03:41:40;;;;;;;18.15;13.28;;;2.00;99.90;;;;;;1972511;72;21031;-74
2021/11/07 03:44:06;;;;;;;18.90;12.90;;;2.00;99.90;;;;;;1959863;72;21065;-74
2021/11/07 03:46:33;;;;;;;19.48;14.03;;;1.90;99.90;;;;;;1988558;72;21172;-75
2021/11/07 03:48:59;;;;;;;29.75;15.35;;;1.80;99.90;;;;;;1988642;72;21137;-76
2021/11/07 03:51:28;;;;;;;22.30;13.90;;;1.70;99.90;;;;;;1988536;72;21136;-75
2021/11/07 03:53:53;;;;;;;22.13;14.05;;;1.80;99.90;;;;;;1991925;72;21176;-75
2021/11/07 03:56:20;;;;;;;18.92;13.93;;;1.80;99.90;;;;;;1975806;72;21512;-75
2021/11/07 03:58:46;;;;;;;18.80;14.43;;;1.70;99.90;;;;;;1964150;72;21537;-73
2021/11/07 04:01:13;;;;;;;19.07;14.25;;;1.70;99.90;;;;;;1974295;72;21470;-74
2021/11/07 04:03:39;;;;;;;20.17;14.40;;;1.70;99.90;;;;;;1974464;72;21127;-75
2021/11/07 04:06:05;;;;;;;22.20;13.75;;;1.60;99.90;;;;;;1988803;72;21133;-76
2021/11/07 04:08:31;;;;;;;21.30;14.95;;;1.50;99.90;;;;;;1969358;72;21151;-75
2021/11/07 04:10:58;;;;;;;17.35;13.88;;;1.50;99.90;;;;;;1987464;72;21051;-74
2021/11/07 04:13:24;;;;;;;24.32;15.18;;;1.60;99.90;;;;;;1972605;72;21062;-74
2021/11/07 04:15:50;;;;;;;19.98;14.15;;;1.50;99.90;;;;;;1965841;72;21124;-75
2021/11/07 04:18:16;;;;;;;20.48;14.83;;;1.50;99.90;;;;;;1973615;72;21065;-75
2021/11/07 04:20:42;;;;;;;20.10;14.83;;;1.50;99.90;;;;;;1983659;72;21205;-74
2021/11/07 04:23:09;;;;;;;24.75;16.30;;;1.50;99.90;;;;;;1964801;72;21130;-74
2021/11/07 04:25:35;;;;;;;22.37;14.87;;;1.40;99.90;;;;;;1974006;72;21097;-73
2021/11/07 04:28:01;;;;;;;20.32;15.00;;;1.40;99.90;;;;;;1989219;72;21054;-75
2021/11/07 04:30:27;;;;;;;21.65;14.83;;;1.40;99.90;;;;;;1971802;72;21160;-75
2021/11/07 04:32:53;;;;;;;28.70;14.10;;;1.30;99.90;;;;;;1969207;72;21430;-75
2021/11/07 04:35:20;;;;;;;21.00;14.25;;;1.30;99.90;;;;;;1982948;72;21438;-74
2021/11/07 04:37:46;;;;;;;20.72;14.85;;;1.20;99.90;;;;;;1985154;72;21036;-74
2021/11/07 04:40:12;;;;;;;20.57;14.07;;;1.20;99.90;;;;;;1962973;72;21026;-74
2021/11/07 04:42:40;;;;;;;16.87;12.90;;;1.20;99.90;;;;;;1976461;72;21449;-74
2021/11/07 04:45:06;;;;;;;17.98;12.53;;;1.30;99.90;;;;;;1967885;72;21065;-74
2021/11/07 04:47:32;;;;;;;17.35;12.73;;;1.30;99.90;;;;;;1965650;72;21069;-74
2021/11/07 04:49:58;;;;;;;17.90;12.60;;;1.30;99.90;;;;;;1973472;72;21173;-75
2021/11/07 04:52:25;;;;;;;17.82;12.05;;;1.30;99.90;;;;;;1960923;72;21034;-74
2021/11/07 04:54:51;;;;;;;18.75;13.62;;;1.20;99.90;;;;;;1988806;72;21105;-73
2021/11/07 04:57:17;;;;;;;18.95;13.80;;;1.10;99.90;;;;;;1990384;72;21109;-74
2021/11/07 04:59:43;;;;;;;20.70;13.22;;;1.00;99.90;;;;;;1960520;72;21049;-74
2021/11/07 05:02:10;;;;;;;17.80;13.78;;;1.20;99.90;;;;;;1980185;72;21115;-74
2021/11/07 05:04:37;;;;;;;18.87;13.93;;;1.20;99.90;;;;;;1969475;72;21119;-75
2021/11/07 05:07:03;;;;;;;23.90;14.95;;;1.10;99.90;;;;;;1960516;72;21135;-74
2021/11/07 05:09:29;;;;;;;19.48;14.18;;;1.10;99.90;;;;;;1979694;72;21551;-74
2021/11/07 05:11:55;;;;;;;24.90;16.20;;;1.10;99.90;;;;;;1990869;72;21067;-74
2021/11/07 05:14:21;;;;;;;20.27;14.98;;;1.10;99.90;;;;;;1981304;72;21128;-75
2021/11/07 05:16:48;;;;;;;24.55;15.45;;;1.10;99.90;;;;;;1978916;72;21220;-75
2021/11/07 05:19:14;;;;;;;24.45;14.87;;;1.10;99.90;;;;;;1989058;72;21124;-75
2021/11/07 05:21:40;;;;;;;22.20;15.32;;;1.10;99.90;;;;;;1986691;71;21139;-75
2021/11/07 05:24:06;;;;;;;22.07;14.65;;;1.10;99.90;;;;;;1983805;72;21027;-74
2021/11/07 05:26:32;;;;;;;19.17;14.55;;;1.10;99.90;;;;;;1990985;72;21043;-75
2021/11/07 05:28:59;;;;;;;19.92;13.13;;;1.20;99.90;;;;;;1990946;72;21125;-74
2021/11/07 05:31:25;;;;;;;17.62;13.15;;;1.10;99.90;;;;;;1991051;72;21072;-74
2021/11/07 05:33:52;;;;;;;21.42;14.60;;;1.10;99.90;;;;;;1968901;72;21062;-74
2021/11/07 05:36:18;;;;;;;27.05;15.58;;;1.10;99.90;;;;;;1968510;72;21454;-74
2021/11/07 05:38:44;;;;;;;23.25;14.55;;;1.10;99.90;;;;;;1976131;72;21081;-75
2021/11/07 05:41:10;;;;;;;24.30;15.15;;;1.10;99.90;;;;;;1971598;72;21058;-74
2021/11/07 05:43:36;;;;;;;16.97;13.70;;;1.10;99.90;;;;;;1988351;72;21027;-74
2021/11/07 05:46:02;;;;;;;18.10;13.00;;;1.10;99.90;;;;;;1992111;72;21157;-74
2021/11/07 05:48:28;;;;;;;17.52;12.58;;;1.10;99.90;;;;;;1982365;72;21062;-76
2021/11/07 05:50:57;;;;;;;21.33;13.55;;;1.10;99.90;;;;;;1988610;72;21135;-74
2021/11/07 05:53:23;;;;;;;17.62;12.05;;;1.10;99.90;;;;;;1989698;72;21189;-76
2021/11/07 05:55:49;;;;;;;18.23;13.10;;;1.00;99.90;;;;;;1991312;72;21074;-75
2021/11/07 05:58:15;;;;;;;24.18;12.10;;;1.10;99.90;;;;;;1985154;72;21439;-78
2021/11/07 06:00:42;;;;;;;18.80;13.32;;;1.10;99.90;;;;;;1973374;72;21547;-75
2021/11/07 06:03:08;;;;;;;17.60;12.35;;;1.00;99.90;;;;;;1982465;72;21114;-75
2021/11/07 06:05:34;;;;;;;15.93;12.35;;;1.00;99.90;;;;;;1986778;72;21079;-76
2021/11/07 06:08:00;;;;;;;16.42;11.88;;;1.10;99.90;;;;;;1977183;72;21062;-74
2021/11/07 06:10:26;;;;;;;16.97;11.90;;;1.10;99.90;;;;;;1979724;72;21159;-76
2021/11/07 06:12:53;;;;;;;18.20;12.15;;;1.00;99.90;;;;;;1986459;72;21443;-75
2021/11/07 06:15:19;;;;;;;17.48;12.43;;;1.10;99.90;;;;;;1983384;72;21042;-75
2021/11/07 06:17:45;;;;;;;22.00;14.50;;;1.10;99.90;;;;;;1968431;72;21205;-75
2021/11/07 06:20:11;;;;;;;21.02;13.83;;;1.10;99.90;;;;;;1969916;72;21141;-75
2021/11/07 06:22:38;;;;;;;23.32;13.03;;;1.00;99.90;;;;;;1983045;72;21070;-76
2021/11/07 06:25:04;;;;;;;18.15;12.05;;;1.00;99.90;;;;;;1962590;72;21196;-76
2021/11/07 06:27:31;;;;;;;18.17;12.68;;;1.00;99.90;;;;;;1985532;72;21140;-75
2021/11/07 06:29:58;;;;;;;21.97;13.30;;;0.90;99.90;;;;;;1985112;72;21062;-75
2021/11/07 06:32:24;;;;;;;16.42;12.30;;;1.00;99.90;;;;;;1978175;72;21074;-75
2021/11/07 06:34:50;;;;;;;20.88;12.43;;;1.00;99.90;;;;;;1989116;72;21067;-77
2021/11/07 06:37:16;;;;;;;16.73;11.22;;;0.90;99.90;;;;;;1990581;72;21062;-74
2021/11/07 06:39:42;;;;;;;16.97;11.55;;;1.00;99.90;;;;;;1971163;72;21151;-76
2021/11/07 06:42:09;;;;;;;19.17;12.07;;;1.00;99.90;;;;;;1977785;72;21062;-75
2021/11/07 06:44:35;;;;;;;17.42;11.90;;;1.10;99.90;;;;;;1979074;72;21116;-74
2021/11/07 06:47:02;;;;;;;18.10;12.60;;;1.00;99.90;;;;;;1967628;72;21184;-74
2021/11/07 06:49:28;;;;;;;15.40;11.08;;;1.00;99.90;;;;;;1970043;72;21038;-74
2021/11/07 06:51:55;;;;;;;20.12;13.13;;;1.10;99.90;;;;;;1981377;72;21416;-74
2021/11/07 06:54:26;;;;;;;20.65;13.70;;;1.30;99.90;;;;;;1990928;72;21067;-73
2021/11/07 06:56:48;;;;;;;18.00;12.37;;;1.20;99.90;;;;;;1980906;72;21127;-74
2021/11/07 06:59:15;;;;;;;16.42;12.33;;;1.20;99.90;;;;;;1977967;72;21062;-74
2021/11/07 07:01:41;;;;;;;19.60;12.82;;;1.30;99.90;;;;;;1968487;72;21446;-74
2021/11/07 07:04:07;;;;;;;18.12;12.07;;;1.50;99.90;;;;;;1977115;72;21028;-74
2021/11/07 07:06:35;;;;;;;18.25;12.33;;;1.60;99.90;;;;;;1972287;72;21049;-75
2021/11/07 07:09:06;;;;;;;21.42;13.28;;;1.60;99.90;;;;;;1968253;72;21474;-74
2021/11/07 07:11:32;;;;;;;20.02;12.60;;;1.60;99.90;;;;;;1962852;72;21098;-74
2021/11/07 07:14:02;;;;;;;21.55;12.98;;;1.70;99.90;;;;;;1980625;72;21136;-75
2021/11/07 07:16:40;;;;;;;20.27;13.80;;;1.80;99.90;;;;;;1987399;72;21162;-74
2021/11/07 07:21:46;;;;;;;23.27;13.65;;;2.20;99.90;;;;;;1926977;72;21179;-74
2021/11/07 07:24:26;;;;;;;18.07;12.68;;;2.30;99.90;;;;;;1968022;72;21088;-74
2021/11/07 07:27:04;;;;;;;27.07;13.32;;;2.60;99.90;;;;;;1986944;72;21087;-74
2021/11/07 07:29:35;;;;;;;19.10;13.32;;;2.80;99.90;;;;;;1987387;72;21384;-74
2021/11/07 07:34:25;;;;;;;20.85;12.98;;;3.00;99.90;;;;;;1986760;72;21080;-75
2021/11/07 07:36:51;;;;;;;22.60;12.35;;;3.10;99.90;;;;;;1976553;72;21096;-73
2021/11/07 07:39:17;;;;;;;17.87;11.68;;;3.30;99.90;;;;;;1964132;72;21053;-75
2021/11/07 07:41:43;;;;;;;19.85;12.75;;;3.40;99.90;;;;;;1961731;72;21057;-72
2021/11/07 07:44:10;;;;;;;16.62;11.95;;;3.50;99.90;;;;;;1968843;72;21062;-73
2021/11/07 07:46:36;;;;;;;24.80;16.57;;;3.60;99.90;;;;;;1984361;72;21077;-75
2021/11/07 07:49:02;;;;;;;19.23;11.50;;;3.70;99.90;;;;;;1971796;72;21480;-74
2021/11/07 07:51:30;;;;;;;20.62;11.97;;;3.90;99.90;;;;;;1981488;72;21442;-73
2021/11/07 07:53:59;;;;;;;13.50;10.60;;;4.00;99.90;;;;;;1985544;71;21115;-73
2021/11/07 07:56:25;;;;;;;16.85;10.95;;;4.20;99.90;;;;;;1987527;72;21246;-74
2021/11/07 07:58:52;;;;;;;15.45;10.90;;;4.60;99.90;;;;;;1985964;72;21058;-75
2021/11/07 08:01:18;;;;;;;13.62;10.58;;;4.80;99.90;;;;;;1971347;72;21026;-74
2021/11/07 08:03:44;;;;;;;16.75;10.98;;;5.00;99.90;;;;;;1989203;72;21132;-75
2021/11/07 08:06:10;;;;;;;11.75;9.60;;;5.20;99.90;;;;;;1969437;72;21144;-74
2021/11/07 08:08:36;;;;;;;15.48;10.88;;;5.50;99.90;;;;;;1975453;72;21057;-75
2021/11/07 08:11:04;;;;;;;12.63;9.13;;;5.70;99.90;;;;;;1984760;72;21159;-73
2021/11/07 08:13:30;;;;;;;16.52;9.70;;;5.80;99.90;;;;;;1985525;72;21039;-75
2021/11/07 08:15:57;;;;;;;13.13;10.35;;;6.00;99.90;;;;;;1989262;72;21113;-74
2021/11/07 08:18:23;;;;;;;13.03;8.95;;;6.00;99.90;;;;;;1990953;72;21074;-74
2021/11/07 08:20:49;;;;;;;17.87;9.13;;;6.00;99.90;;;;;;1978086;72;21051;-74
2021/11/07 08:23:16;;;;;;;10.82;8.85;;;5.90;99.90;;;;;;1977504;72;21112;-73
2021/11/07 08:25:42;;;;;;;13.08;9.73;;;6.00;99.90;;;;;;1984804;72;21123;-74
2021/11/07 08:28:08;;;;;;;15.75;9.90;;;5.90;99.90;;;;;;1965787;72;21061;-74
2021/11/07 08:30:34;;;;;;;16.45;9.80;;;6.00;99.90;;;;;;1958535;72;21042;-74
2021/11/07 08:33:00;;;;;;;12.98;9.38;;;5.90;99.90;;;;;;1983414;72;21131;-74
2021/11/07 08:35:27;;;;;;;14.73;10.00;;;5.90;99.90;;;;;;1983807;72;21543;-73
2021/11/07 08:38:04;;;;;;;10.78;9.03;;;6.10;99.90;;;;;;1988681;72;21039;-73
2021/11/07 08:40:34;;;;;;;12.82;8.88;;;6.10;99.90;;;;;;1982892;72;21413;-73
2021/11/07 09:04:41;;;;;;;11.55;8.45;;;6.50;99.90;;;;;;1972947;72;21099;-74
2021/11/07 09:07:16;;;;;;;;;;;6.50;99.90;;;;;;1992628;72;21070;-75
2021/11/07 09:09:32;;;;;;;8.45;7.00;;;6.60;99.90;;;;;;1982196;72;20117;-73
2021/11/07 09:11:58;;;;;;;9.73;7.65;;;6.70;99.90;;;;;;1984245;72;21192;-74
2021/11/07 09:14:25;;;;;;;11.20;8.03;;;6.70;99.90;;;;;;1990457;72;21135;-74
2021/11/07 09:16:52;;;;;;;8.05;7.17;;;6.90;99.90;;;;;;1977365;72;21136;-74
2021/11/07 09:19:21;;;;;;;9.05;7.65;;;7.10;99.90;;;;;;1985195;72;21070;-75
2021/11/07 09:21:49;;;;;;;7.47;6.67;;;7.20;99.90;;;;;;1992030;72;21035;-76
2021/11/07 09:24:25;;;;;;;7.85;6.92;;;7.10;99.90;;;;;;1989648;72;21071;-75
2021/11/07 09:26:48;;;;;;;8.60;6.67;;;7.40;99.90;;;;;;1979353;72;21536;-77
2021/11/07 09:29:27;;;;;;;8.38;6.25;;;8.10;99.90;;;;;;1957472;72;21049;-77
2021/11/07 09:32:08;;;;;;;6.62;5.47;;;8.60;99.90;;;;;;1973529;72;21111;-74
2021/11/07 09:37:03;;;;;;;5.92;4.67;;;9.50;99.90;;;;;;1959008;72;20109;-76
2021/11/07 09:39:32;;;;;;;5.47;4.72;;;10.00;99.90;;;;;;1982909;71;21148;-76
2021/11/07 09:44:22;;;;;;;8.95;6.25;;;10.30;99.90;;;;;;1923741;72;21097;-75
2021/11/07 09:46:51;;;;;;;7.25;5.03;;;9.70;99.90;;;;;;1979018;72;21087;-76
2021/11/07 09:49:21;;;;;;;5.97;4.95;;;9.50;99.90;;;;;;1976351;72;21177;-75
2021/11/07 09:51:49;;;;;;;8.05;4.78;;;9.10;99.90;;;;;;1988550;72;21511;-75
2021/11/07 09:54:16;;;;;;;7.15;4.40;;;9.00;99.90;;;;;;1978853;72;21169;-75
2021/11/07 09:56:47;;;;;;;7.90;5.03;;;9.20;99.90;;;;;;1980005;72;21091;-76
2021/11/07 09:59:09;;;;;;;6.90;4.33;;;9.10;99.90;;;;;;1989759;72;21500;-75
2021/11/07 10:01:38;;;;;;;9.98;5.00;;;8.90;99.90;;;;;;1972330;72;21104;-75
2021/11/07 10:04:05;;;;;;;6.20;4.70;;;8.80;99.90;;;;;;1980410;72;21027;-75
2021/11/07 10:06:34;;;;;;;4.70;4.03;;;8.90;99.90;;;;;;1959966;72;21030;-76
2021/11/07 10:08:59;;;;;;;8.43;4.78;;;8.90;99.90;;;;;;1968063;72;21030;-75
2021/11/07 10:11:31;;;;;;;6.15;4.08;;;9.00;99.90;;;;;;1973452;72;21036;-75
2021/11/07 10:13:54;;;;;;;6.72;4.03;;;9.00;99.90;;;;;;1988885;72;21062;-75
2021/11/07 10:16:20;;;;;;;4.37;3.98;;;9.10;99.90;;;;;;1992091;72;21152;-75
2021/11/07 10:19:03;;;;;;;4.15;3.75;;;8.80;99.90;;;;;;1988111;72;21093;-77
2021/11/07 10:21:34;;;;;;;4.37;3.98;;;8.60;99.90;;;;;;1977256;72;21407;-81
2021/11/07 10:23:52;;;;;;;4.28;3.80;;;8.60;99.90;;;;;;1962460;72;21034;-81
2021/11/07 10:26:44;;;;;;;8.70;4.30;;;8.70;99.90;;;;;;1967852;72;21043;-79
2021/11/07 10:28:55;;;;;;;7.47;3.80;;;8.80;99.90;;;;;;1964005;72;21043;-79
2021/11/07 10:31:20;;;;;;;9.28;3.77;;;9.10;99.90;;;;;;1975685;72;21170;-82
2021/11/07 10:39:36;;;;;;;4.65;3.27;;;9.10;99.90;;;;;;1981182;72;21072;-81
2021/11/07 10:52:15;;;;;;;4.05;3.20;;;9.90;99.90;;;;;;1895843;74;21089;-76
2021/11/07 10:54:41;;;;;;;6.17;3.80;;;9.90;99.90;;;;;;1976111;72;21004;-78
2021/11/07 10:57:07;;;;;;;6.80;3.87;;;9.90;99.90;;;;;;1977673;72;21119;-76
2021/11/07 10:59:33;;;;;;;3.37;3.08;;;9.60;99.90;;;;;;1981479;72;21066;-76
2021/11/07 11:02:00;;;;;;;5.62;3.15;;;9.60;99.90;;;;;;1988471;72;21070;-77
2021/11/07 11:04:26;;;;;;;5.72;3.55;;;9.40;99.90;;;;;;1988108;72;21105;-84
2021/11/07 11:06:52;;;;;;;3.62;3.33;;;9.50;99.90;;;;;;1985257;72;21118;-89
2021/11/07 11:09:20;;;;;;;4.40;3.52;;;9.60;99.90;;;;;;1974728;72;21071;-87
2021/11/07 11:11:48;;;;;;;3.50;3.20;;;9.70;99.90;;;;;;1982591;71;21263;-87
2021/11/07 11:14:20;;;;;;;4.00;2.95;;;9.60;99.90;;;;;;1965610;72;21114;-81
2021/11/07 11:22:09;;;;;;;5.03;3.33;;;9.90;99.90;;;;;;1964573;72;21039;-79
2021/11/07 11:24:39;;;;;;;;;;;10.00;99.90;;;;;;1991664;72;21058;-79
2021/11/07 11:27:07;;;;;;;4.08;2.95;;;10.10;99.90;;;;;;1969858;72;20305;-81
2021/11/07 11:29:40;;;;;;;6.72;3.77;;;10.40;99.90;;;;;;1972985;72;21074;-78
2021/11/07 11:32:02;;;;;;;6.28;3.22;;;10.80;99.90;;;;;;1975022;72;21103;-77
2021/11/07 11:34:30;;;;;;;5.42;3.90;;;10.70;99.90;;;;;;1969607;72;21095;-80
2021/11/07 11:37:08;;;;;;;6.47;3.27;;;10.90;99.90;;;;;;1972966;72;21520;-77
2021/11/07 11:39:25;;;;;;;4.72;3.17;;;11.20;99.90;;;;;;1960763;72;21139;-79
2021/11/07 11:41:55;;;;;;;4.05;3.12;;;11.30;99.90;;;;;;1968562;72;21110;-79
2021/11/07 11:44:16;;;;;;;3.85;2.58;;;11.30;99.90;;;;;;1989384;72;21061;-78
2021/11/07 11:46:54;;;;;;;3.25;2.90;;;11.30;99.90;;;;;;1983671;72;21038;-77
2021/11/07 11:54:57;;;;;;;3.70;2.42;;;11.20;99.90;;;;;;1973912;72;21132;-77
2021/11/07 11:57:25;;;;;;;4.08;2.77;;;11.30;99.90;;;;;;1991404;72;21109;-76
2021/11/07 11:59:58;;;;;;;4.33;2.75;;;11.30;99.90;;;;;;1984390;72;21065;-77
2021/11/07 12:03:18;;;;;;;4.87;2.58;;;11.40;99.90;;;;;;1960916;72;21555;-78
2021/11/07 12:04:51;;;;;;;2.95;2.60;;;11.40;99.90;;;;;;1954281;72;21470;-77
2021/11/07 12:07:32;;;;;;;3.00;2.17;;;11.40;99.90;;;;;;1980144;72;21039;-80
2021/11/07 12:10:00;;;;;;;3.22;2.45;;;11.60;99.90;;;;;;1976363;72;21167;-78
2021/11/07 12:12:29;;;;;;;3.40;2.60;;;11.60;99.90;;;;;;1972835;72;21067;-78
2021/11/07 12:14:50;;;;;;;3.92;2.00;;;11.70;99.90;;;;;;1989884;72;21115;-78
2021/11/07 12:17:18;;;;;;;3.12;2.27;;;11.70;99.90;;;;;;1968737;72;21189;-78
2021/11/07 12:19:44;;;;;;;3.70;2.17;;;11.90;99.90;;;;;;1974662;72;21149;-78
2021/11/07 12:22:11;;;;;;;6.10;2.37;;;12.10;99.90;;;;;;1988627;72;21124;-78
2021/11/07 12:24:37;;;;;;;5.75;1.82;;;11.90;99.90;;;;;;1990230;72;21122;-78
2021/11/07 12:27:03;;;;;;;4.03;1.85;;;11.90;99.90;;;;;;1989659;72;21062;-78
2021/11/07 12:29:29;;;;;;;2.50;1.80;;;12.00;99.90;;;;;;1974797;72;21062;-80
2021/11/07 12:31:55;;;;;;;2.37;1.67;;;12.00;99.90;;;;;;1972255;72;21055;-81
2021/11/07 12:34:23;;;;;;;2.22;1.65;;;12.10;99.90;;;;;;1966929;72;21140;-81
2021/11/07 12:42:18;;;;;;;0.93;0.90;;;12.50;99.90;;;;;;1981929;72;21279;-82
2021/11/07 12:44:51;;;;;;;0.90;0.88;;;13.40;99.90;;;;;;1977980;72;21136;-80
2021/11/07 12:47:12;;;;;;;1.42;0.70;;;14.20;99.90;;;;;;1978569;72;21055;-81
2021/11/07 12:49:40;;;;;;;1.10;0.60;;;14.90;99.90;;;;;;1979337;72;21062;-82
2021/11/07 12:52:06;;;;;;;1.85;0.80;;;16.00;99.90;;;;;;1955986;72;21557;-72
2021/11/07 12:54:32;;;;;;;0.65;0.53;;;15.70;99.90;;;;;;1988952;72;21121;-81
2021/11/07 12:56:58;;;;;;;0.82;0.72;;;15.90;99.90;;;;;;1986579;72;21513;-82
2021/11/07 12:59:24;;;;;;;1.30;0.60;;;15.80;99.90;;;;;;1985899;72;21143;-80
2021/11/07 13:01:51;;;;;;;0.40;0.40;;;15.00;99.90;;;;;;1990363;72;21136;-81
2021/11/07 13:04:17;;;;;;;0.47;0.47;;;14.30;99.90;;;;;;1990017;72;21135;-79
2021/11/07 13:06:43;;;;;;;1.05;0.50;;;14.30;99.90;;;;;;1989851;72;21054;-79
2021/11/07 13:09:09;;;;;;;1.10;1.00;;;13.80;99.90;;;;;;1983869;72;21062;-81
2021/11/07 13:11:36;;;;;;;0.93;0.68;;;13.50;99.90;;;;;;1988376;72;21062;-80
2021/11/07 13:14:16;;;;;;;2.30;0.60;;;13.00;99.90;;;;;;1964059;72;21120;-78
2021/11/07 13:22:23;;;;;;;0.80;0.70;;;12.50;99.90;;;;;;1974429;72;21080;-77
2021/11/07 13:24:55;;;;;;;1.22;0.90;;;12.50;99.90;;;;;;1990210;72;21070;-77
2021/11/07 13:27:08;;;;;;;1.37;0.70;;;12.30;99.90;;;;;;1987986;72;21095;-77
2021/11/07 13:29:37;;;;;;;1.92;0.60;;;12.20;99.90;;;;;;1986289;72;21115;-77
2021/11/07 13:32:29;;;;;;;1.12;0.95;;;12.20;99.90;;;;;;1972529;72;21177;-77
2021/11/07 13:34:42;;;;;;;1.07;0.60;;;12.10;99.90;;;;;;1989676;72;21107;-78
2021/11/07 13:37:09;;;;;;;2.10;0.70;;;12.10;99.90;;;;;;1976132;72;21018;-76
2021/11/07 13:39:36;;;;;;;0.70;0.65;;;12.10;99.90;;;;;;1968956;72;21624;-77
2021/11/07 13:42:18;;;;;;;0.55;0.55;;;12.10;99.90;;;;;;1979262;72;21054;-83
2021/11/07 13:44:45;;;;;;;1.10;0.80;;;12.00;99.90;;;;;;1987440;72;21472;-84
2021/11/07 13:47:11;;;;;;;1.17;0.80;;;12.10;99.90;;;;;;1979404;72;21070;-77
2021/11/07 13:49:37;;;;;;;4.33;1.67;;;12.00;99.90;;;;;;1964831;72;21196;-76
2021/11/07 13:52:04;;;;;;;1.50;1.35;;;11.90;99.90;;;;;;1968550;72;21057;-77
2021/11/07 13:54:30;;;;;;;3.83;0.70;;;11.80;99.90;;;;;;1976557;72;21062;-75
2021/11/07 13:56:56;;;;;;;0.60;0.50;;;11.80;99.90;;;;;;1963089;72;21154;-76
2021/11/07 13:59:22;;;;;;;1.12;0.60;;;11.90;99.90;;;;;;1973544;72;21475;-76
2021/11/07 14:01:48;;;;;;;1.45;0.60;;;11.80;99.90;;;;;;1991224;72;21555;-76
2021/11/07 14:04:14;;;;;;;0.90;0.50;;;11.90;99.90;;;;;;1975754;72;22944;-77
2021/11/07 14:06:42;;;;;;;1.42;0.88;;;11.80;99.90;;;;;;1967747;72;21541;-76
2021/11/07 14:09:09;;;;;;;0.95;0.75;;;11.80;99.90;;;;;;1971074;72;21254;-76
2021/11/07 14:11:36;;;;;;;0.98;0.72;;;11.80;99.90;;;;;;1975267;72;21128;-76
2021/11/07 14:14:02;;;;;;;1.12;0.70;;;11.80;99.90;;;;;;1988922;72;21070;-76
2021/11/07 14:16:29;;;;;;;2.15;1.12;;;11.90;99.90;;;;;;1990894;72;21131;-77